Time;durP1;ratioP1;P1;durP2;ratioP2;P2;SDS_P1;SDS_P2;PMS_P1;PMS_P2;Temp;Humidity;BMP_temperature;BMP_pressure;BME280_temperature;BME280_humidity;BME280_pressure;Samples;Min_cycle;Max_cycle;Signal;HPM_P1;HPM_P2
2022/05/24 00:00:31;;;;;;;10.00;5.40;;;14.60;99.90;;;;;;4826704;24;20061;-89
2022/05/24 00:03:00;;;;;;;11.02;5.18;;;14.70;99.90;;;;;;4791482;29;20129;-92
2022/05/24 00:07:56;;;;;;;10.38;4.97;;;14.60;99.90;;;;;;4881130;23;20858;-90
2022/05/24 00:10:47;;;;;;;9.65;5.53;;;14.60;99.90;;;;;;4832720;29;20151;-90
2022/05/24 00:13:19;;;;;;;11.38;5.82;;;14.70;99.90;;;;;;4851584;24;20064;-90
2022/05/24 00:18:43;;;;;;;11.93;4.88;;;14.60;99.90;;;;;;4855134;23;20042;-90
2022/05/24 00:21:21;;;;;;;9.70;5.45;;;14.60;99.90;;;;;;4835185;29;20029;-92
2022/05/24 00:23:56;;;;;;;13.18;4.63;;;14.60;99.90;;;;;;4861444;23;20123;-89
2022/05/24 00:26:42;;;;;;;9.70;5.38;;;14.70;99.90;;;;;;4840865;29;20055;-90
2022/05/24 00:34:16;;;;;;;10.95;5.18;;;14.60;99.90;;;;;;4829083;29;20470;-90
2022/05/24 00:36:45;;;;;;;9.35;5.15;;;14.60;99.90;;;;;;4827145;29;20053;-90
2022/05/24 00:42:24;;;;;;;12.45;5.20;;;14.60;99.90;;;;;;4852525;23;20056;-90
2022/05/24 00:45:12;;;;;;;11.43;5.82;;;14.00;99.90;;;;;;4832404;29;20605;-91
2022/05/24 00:48:00;;;;;;;9.82;5.10;;;13.20;99.90;;;;;;4848572;29;20463;-89
2022/05/24 01:01:35;;;;;;;9.10;5.28;;;14.60;99.90;;;;;;4991586;23;20168;-89
2022/05/24 01:04:26;;;;;;;8.18;4.50;;;14.50;99.90;;;;;;4832075;29;20592;-90
2022/05/24 01:06:56;;;;;;;10.02;4.72;;;14.50;99.90;;;;;;4832036;29;20038;-89
2022/05/24 01:15:19;;;;;;;8.40;4.30;;;14.50;99.90;;;;;;4791503;29;20062;-89
2022/05/24 01:17:46;;;;;;;10.10;5.63;;;14.40;99.90;;;;;;4793885;29;20023;-90
2022/05/24 01:20:13;;;;;;;9.45;5.13;;;;;;;;;;4792631;29;20092;-89
2022/05/24 01:23:43;;;;;;;9.20;5.13;;;14.50;99.90;;;;;;4771454;30;20035;-90
2022/05/24 01:29:33;;;;;;;9.50;5.63;;;14.70;99.90;;;;;;4879289;23;20674;-89
2022/05/24 01:37:56;;;;;;;9.07;5.20;;;14.30;99.90;;;;;;5071469;23;20589;-90
2022/05/24 01:50:46;;;;;;;10.07;5.13;;;14.20;99.90;;;;;;4846852;29;20329;-91
2022/05/24 01:56:59;;;;;;;9.95;5.25;;;14.80;99.90;;;;;;4811485;29;20111;-90
2022/05/24 02:02:03;;;;;;;7.38;3.78;;;14.00;99.90;;;;;;4858774;23;20055;-90
2022/05/24 02:07:26;;;;;;;10.27;5.28;;;13.90;99.90;;;;;;4858484;23;20133;-89
2022/05/24 02:10:13;;;;;;;10.85;4.68;;;13.90;99.90;;;;;;4830979;29;20036;-91
2022/05/24 02:12:50;;;;;;;8.38;4.38;;;13.90;99.90;;;;;;4830805;29;20089;-90
2022/05/24 02:23:50;;;;;;;8.10;4.00;;;13.90;99.90;;;;;;4829824;29;20081;-90
2022/05/24 02:26:32;;;;;;;10.48;4.75;;;13.80;99.90;;;;;;4828843;29;20030;-90
2022/05/24 02:34:04;;;;;;;8.88;5.10;;;13.80;99.90;;;;;;4886304;23;20063;-90
2022/05/24 02:36:33;;;;;;;8.20;4.57;;;14.00;99.90;;;;;;5036697;24;20144;-93
2022/05/24 02:38:59;;;;;;;18.83;5.68;;;13.90;99.90;;;;;;4830753;29;20317;-91
2022/05/24 02:41:31;;;;;;;9.88;4.75;;;13.90;99.90;;;;;;4852389;29;20136;-94
2022/05/24 02:44:15;;;;;;;8.05;4.82;;;13.80;99.90;;;;;;4835159;29;20038;-93
2022/05/24 02:46:46;;;;;;;9.45;4.70;;;13.80;99.90;;;;;;4835700;29;20215;-94
2022/05/24 02:49:12;;;;;;;7.90;4.28;;;13.70;99.90;;;;;;4849624;29;20441;-93
2022/05/24 02:51:44;;;;;;;7.43;4.40;;;13.70;99.90;;;;;;4845303;29;20026;-93
2022/05/24 02:54:16;;;;;;;8.43;4.78;;;13.70;99.90;;;;;;4921145;23;20054;-94
2022/05/24 02:56:58;;;;;;;9.27;4.47;;;13.60;99.90;;;;;;4836367;29;20030;-91
2022/05/24 02:59:46;;;;;;;11.55;5.65;;;13.60;99.90;;;;;;4862873;24;20045;-94
2022/05/24 03:02:11;;;;;;;8.00;3.95;;;11.70;99.90;;;;;;4851558;29;20064;-90
2022/05/24 03:04:37;;;;;;;9.52;4.72;;;13.50;99.90;;;;;;4853432;29;20021;-91
2022/05/24 03:10:18;;;;;;;7.68;4.20;;;13.50;99.90;;;;;;4867591;29;20629;-93
2022/05/24 03:15:24;;;;;;;9.43;4.53;;;13.50;99.90;;;;;;4879791;23;20152;-92
2022/05/24 03:18:06;;;;;;;9.10;4.57;;;13.40;99.90;;;;;;4867544;29;20092;-92
2022/05/24 03:27:19;;;;;;;8.75;5.07;;;12.30;99.90;;;;;;4853376;29;20086;-92
2022/05/24 03:29:59;;;;;;;8.13;4.43;;;13.50;99.90;;;;;;4850914;29;20033;-91
2022/05/24 03:32:59;;;;;;;16.73;5.20;;;13.50;99.90;;;;;;4850822;29;20256;-91
2022/05/24 03:38:27;;;;;;;9.65;4.80;;;13.40;99.90;;;;;;4873940;23;20485;-92
2022/05/24 03:41:08;;;;;;;9.70;4.05;;;11.70;99.90;;;;;;4856536;29;20513;-91
2022/05/24 03:44:11;;;;;;;9.55;4.68;;;13.50;99.90;;;;;;4855652;29;20029;-92
2022/05/24 03:46:40;;;;;;;7.32;4.68;;;13.40;99.90;;;;;;4853833;29;20505;-92
2022/05/24 03:49:05;;;;;;;7.05;3.78;;;13.50;99.90;;;;;;4853013;29;20052;-89
2022/05/24 03:51:34;;;;;;;9.35;4.20;;;13.50;99.90;;;;;;4856488;24;20061;-92
2022/05/24 03:54:00;;;;;;;9.60;3.70;;;13.60;99.90;;;;;;4834297;29;20072;-93
2022/05/24 03:56:26;;;;;;;9.23;4.72;;;13.60;99.90;;;;;;4834431;29;20053;-87
2022/05/24 03:59:04;;;;;;;9.65;4.70;;;13.60;99.90;;;;;;4833837;29;20105;-92
2022/05/24 04:20:19;;;;;;;8.38;4.30;;;13.60;99.90;;;;;;5911664;23;20971;31
2022/05/24 04:46:04;;;;;;;8.90;5.00;;;14.10;99.90;;;;;;4817612;24;20509;-90
2022/05/24 04:51:05;;;;;;;9.25;5.40;;;14.20;99.90;;;;;;2303877;24;20343;-85
2022/05/24 04:53:40;;;;;;;8.23;4.75;;;14.20;99.90;;;;;;4813477;29;20426;-91
2022/05/24 04:56:15;;;;;;;10.55;4.72;;;14.20;99.90;;;;;;4815245;29;20068;-95
2022/05/24 04:58:41;;;;;;;10.93;4.10;;;14.20;99.90;;;;;;4825488;24;20079;-93
2022/05/24 05:06:23;;;;;;;10.27;4.38;;;14.30;99.90;;;;;;5271493;23;20061;-93
2022/05/24 05:08:57;;;;;;;8.25;4.00;;;14.30;99.90;;;;;;4819264;29;20026;-93
2022/05/24 05:11:29;;;;;;;7.93;4.13;;;14.40;99.90;;;;;;4823290;24;20037;-94
2022/05/24 05:13:55;;;;;;;7.90;4.20;;;15.00;99.90;;;;;;4816255;29;20253;-92
2022/05/24 05:21:33;;;;;;;10.23;4.82;;;14.60;99.90;;;;;;5564657;23;20065;-91
2022/05/24 06:16:15;;;;;;;11.88;5.15;;;17.90;99.90;;;;;;2953194;24;20324;-94
2022/05/24 06:18:40;;;;;;;11.45;5.20;;;19.10;99.90;;;;;;4812012;29;20038;-87
2022/05/24 06:21:24;;;;;;;7.50;4.03;;;18.20;99.90;;;;;;4818940;24;20069;-94
2022/05/24 06:24:14;;;;;;;10.43;4.28;;;18.70;99.90;;;;;;4822569;29;20318;-95
2022/05/24 06:34:19;;;;;;;8.70;4.15;;;19.00;99.90;;;;;;4923713;24;20198;-93
2022/05/24 06:36:48;;;;;;;9.45;4.32;;;19.40;99.90;;;;;;4812266;24;20042;-92
2022/05/24 06:39:17;;;;;;;10.57;5.20;;;18.70;99.90;;;;;;4830354;29;20381;-89
2022/05/24 06:41:48;;;;;;;7.90;4.38;;;19.70;99.90;;;;;;4829593;29;20041;-94
2022/05/24 06:44:14;;;;;;;7.20;3.83;;;20.10;99.90;;;;;;4815771;29;20032;-86
2022/05/24 06:46:51;;;;;;;7.95;4.07;;;20.40;99.90;;;;;;4830167;29;20026;-93
2022/05/24 06:49:36;;;;;;;9.88;4.68;;;20.60;99.90;;;;;;4813308;29;20034;-94
2022/05/24 06:52:05;;;;;;;10.30;4.07;;;21.40;99.90;;;;;;4829881;29;20026;-93
2022/05/24 06:54:31;;;;;;;8.00;4.07;;;20.90;99.50;;;;;;4814093;29;20125;-89
2022/05/24 06:57:03;;;;;;;8.07;4.57;;;21.00;99.30;;;;;;4790618;29;20370;-93
2022/05/24 07:02:29;;;;;;;9.77;5.60;;;21.60;97.60;;;;;;4796705;29;20091;-94
2022/05/24 07:05:03;;;;;;;12.73;5.75;;;21.70;96.90;;;;;;4817789;24;20118;-93
2022/05/24 07:10:23;;;;;;;7.85;4.47;;;21.90;95.80;;;;;;4935329;23;20092;-96
2022/05/24 07:13:05;;;;;;;10.93;4.93;;;22.30;94.80;;;;;;4837808;29;20022;-84
2022/05/24 07:15:57;;;;;;;;;;;;;;;;;;;;;
2022/05/24 07:18:26;;;;;;;10.82;4.88;;;22.40;94.80;;;;;;4949619;23;20444;-85
2022/05/24 07:20:54;;;;;;;10.90;5.10;;;22.50;94.80;;;;;;4838122;29;20708;-92
2022/05/24 07:34:47;;;;;;;11.50;5.07;;;23.20;93.60;;;;;;4890173;23;20052;-96
2022/05/24 07:37:33;;;;;;;9.27;4.40;;;23.30;94.00;;;;;;4823325;29;20641;-92
2022/05/24 07:49:18;;;;;;;13.77;6.68;;;23.30;92.60;;;;;;4866348;23;20068;-96
2022/05/24 07:52:04;;;;;;;13.70;6.53;;;22.00;92.40;;;;;;4844379;29;20093;-96
2022/05/24 07:54:45;;;;;;;12.35;7.20;;;23.40;93.10;;;;;;4840028;29;20090;-96
2022/05/24 08:02:53;;;;;;;14.45;7.22;;;23.40;92.20;;;;;;4876291;23;20084;-95
2022/05/24 08:05:25;;;;;;;11.00;7.40;;;25.10;93.00;;;;;;4870048;29;20037;-95
2022/05/24 08:07:54;;;;;;;11.50;5.82;;;23.60;92.50;;;;;;4870752;29;20084;-89
2022/05/24 08:21:39;;;;;;;9.57;5.75;;;24.70;90.20;;;;;;5151874;23;20060;-86
2022/05/24 08:30:15;;;;;;;13.05;6.82;;;24.90;90.00;;;;;;4877297;29;20400;-96
2022/05/24 09:25:15;;;;;;;9.15;5.05;;;26.50;74.70;;;;;;5696899;24;20050;-87
2022/05/24 10:16:53;;;;;;;10.80;4.20;;;28.20;67.30;;;;;;5009285;23;20062;-93
2022/05/24 10:23:20;;;;;;;9.43;3.55;;;26.40;63.30;;;;;;4858922;29;20080;-95
2022/05/24 10:26:39;;;;;;;6.05;3.47;;;27.60;63.40;;;;;;4840741;29;20013;-96
2022/05/24 10:39:12;;;;;;;8.02;3.80;;;30.00;59.00;;;;;;4862178;29;20049;-91
2022/05/24 10:42:28;;;;;;;8.75;3.65;;;30.10;57.90;;;;;;4842701;29;20033;-95
2022/05/24 10:56:23;;;;;;;7.60;3.63;;;29.70;54.60;;;;;;2777507;23;20650;-86
2022/05/24 11:01:33;;;;;;;;;;;30.20;55.40;;;;;;4839561;29;20321;-89
2022/05/24 11:04:07;;;;;;;14.57;3.13;;;29.00;53.60;;;;;;4836900;29;19909;-90
2022/05/24 11:09:18;;;;;;;9.23;3.10;;;31.20;51.90;;;;;;4881193;23;20054;-92
2022/05/24 11:11:52;;;;;;;9.57;2.95;;;31.20;51.10;;;;;;4838832;29;20032;-89
2022/05/24 11:14:48;;;;;;;9.88;2.67;;;31.40;50.00;;;;;;4835762;29;20029;-96
2022/05/24 11:17:33;;;;;;;7.07;2.58;;;29.70;48.20;;;;;;4903244;24;20521;-88
2022/05/24 11:20:23;;;;;;;9.10;3.97;;;32.90;50.30;;;;;;4833968;29;20038;-96
2022/05/24 11:34:48;;;;;;;8.55;3.80;;;30.80;51.60;;;;;;5230550;23;20057;-87
2022/05/24 12:16:45;;;;;;;7.55;2.90;;;34.40;50.30;;;;;;4894954;23;20055;-84
2022/05/24 12:23:19;;;;;;;6.93;3.10;;;31.70;48.20;;;;;;5206153;23;20140;-89
2022/05/24 12:29:13;;;;;;;6.72;2.70;;;36.30;46.20;;;;;;4902366;23;20109;-94
2022/05/24 12:31:47;;;;;;;6.78;2.97;;;38.00;45.60;;;;;;4854154;23;20178;-89
2022/05/24 12:36:55;;;;;;;9.38;3.17;;;37.50;43.00;;;;;;4913217;23;20053;-93
2022/05/24 12:39:35;;;;;;;6.88;3.00;;;38.10;44.30;;;;;;4835800;29;20041;-91
2022/05/24 12:51:11;;;;;;;6.18;2.85;;;38.70;41.00;;;;;;4990719;23;20045;-95
2022/05/24 12:53:50;;;;;;;5.82;2.33;;;38.90;41.30;;;;;;5099216;24;20068;-88
2022/05/24 13:02:25;;;;;;;7.65;3.38;;;39.80;37.90;;;;;;5082891;23;20065;-94
2022/05/24 13:51:38;;;;;;;6.57;2.78;;;41.90;36.80;;;;;;5098776;23;20053;-87
2022/05/24 13:54:42;;;;;;;7.50;3.05;;;42.60;37.10;;;;;;4851227;29;20114;-92
2022/05/24 13:57:38;;;;;;;6.43;3.10;;;42.70;36.50;;;;;;4855375;29;20045;-86
2022/05/24 14:00:25;;;;;;;7.53;3.30;;;42.80;36.40;;;;;;5222885;23;20049;-87
2022/05/24 14:03:27;;;;;;;7.72;3.22;;;42.60;35.60;;;;;;4876761;29;20029;-87
2022/05/24 14:22:38;;;;;;;9.38;2.70;;;39.90;35.80;;;;;;4951676;23;20064;-86
2022/05/24 14:38:43;;;;;;;6.47;2.40;;;39.40;37.60;;;;;;4865554;29;20054;-88
2022/05/24 14:41:28;;;;;;;;;;;;;;;;;;;;;
2022/05/24 15:01:12;;;;;;;7.18;2.85;;;39.90;33.80;;;;;;4890511;23;20057;-89
2022/05/24 15:37:49;;;;;;;11.80;3.50;;;38.30;30.70;;;;;;1707653;23;21288;-88
2022/05/24 15:40:16;;;;;;;7.05;2.15;;;36.60;31.70;;;;;;4858071;29;20109;-86
2022/05/24 15:43:00;;;;;;;7.40;2.90;;;37.50;32.20;;;;;;4840935;29;20028;-87
2022/05/24 15:45:27;;;;;;;8.77;2.72;;;37.40;32.80;;;;;;4842977;29;20021;-93
2022/05/24 15:50:33;;;;;;;5.75;1.90;;;37.70;32.50;;;;;;4816780;29;20061;-95
2022/05/24 15:53:11;;;;;;;7.78;2.10;;;37.70;34.00;;;;;;4818826;29;20099;-92
2022/05/24 15:55:52;;;;;;;6.57;2.70;;;37.10;34.20;;;;;;4818312;29;20526;-95
2022/05/24 15:58:29;;;;;;;5.10;2.03;;;37.60;34.60;;;;;;4833649;24;20050;-89
2022/05/24 16:00:54;;;;;;;11.27;3.08;;;38.00;35.80;;;;;;4784232;30;20047;-87
2022/05/24 16:03:38;;;;;;;9.52;2.28;;;37.40;34.00;;;;;;4787142;30;20035;-96
2022/05/24 16:15:02;;;;;;;7.07;2.47;;;36.80;36.00;;;;;;4855500;29;20037;-89
2022/05/24 16:17:41;;;;;;;8.25;2.10;;;36.00;35.30;;;;;;4840654;24;20041;-90
2022/05/24 16:22:52;;;;;;;4.55;1.95;;;35.20;36.60;;;;;;5225610;23;20080;-91
2022/05/24 16:28:11;;;;;;;5.40;2.10;;;34.50;37.60;;;;;;4878591;23;20076;-94
2022/05/24 16:36:53;;;;;;;8.30;2.45;;;34.80;38.60;;;;;;5060369;23;20061;-91
2022/05/24 16:39:25;;;;;;;8.93;2.63;;;34.80;39.70;;;;;;4842310;29;20037;-93
2022/05/24 16:42:14;;;;;;;9.73;2.63;;;34.20;40.00;;;;;;4857133;29;20045;-94
2022/05/24 16:44:43;;;;;;;8.82;2.75;;;35.70;41.30;;;;;;4838004;29;20305;-93
2022/05/24 16:50:26;;;;;;;12.50;3.83;;;33.90;40.00;;;;;;4817037;29;20111;-89
2022/05/24 17:01:50;;;;;;;5.85;2.25;;;32.50;41.30;;;;;;5263745;23;20058;-87
2022/05/24 17:06:51;;;;;;;7.55;2.72;;;32.20;41.40;;;;;;4814820;29;20054;-88
2022/05/24 17:12:58;;;;;;;9.40;3.00;;;31.90;42.70;;;;;;4823852;29;20037;-88
2022/05/24 17:15:25;;;;;;;4.80;2.20;;;31.10;42.90;;;;;;4809656;29;20062;-88
2022/05/24 17:18:13;;;;;;;5.90;2.40;;;30.70;42.90;;;;;;4802007;29;20027;-87
2022/05/24 17:20:51;;;;;;;8.80;2.40;;;30.00;43.10;;;;;;5354194;24;20028;-93
2022/05/24 17:23:39;;;;;;;12.38;3.35;;;30.50;45.00;;;;;;4861092;29;20108;-90
2022/05/24 17:26:21;;;;;;;7.38;2.53;;;27.10;42.70;;;;;;4844890;29;20037;-90
2022/05/24 17:29:00;;;;;;;7.68;3.08;;;29.10;43.70;;;;;;4831924;29;20026;-89
2022/05/24 17:31:37;;;;;;;7.55;2.63;;;29.00;45.10;;;;;;4826130;29;20042;-89
2022/05/24 17:34:28;;;;;;;10.02;3.03;;;29.10;46.40;;;;;;4826023;29;20035;-89
2022/05/24 17:37:27;;;;;;;;;;;29.20;45.00;;;;;;4825861;29;20517;-90
2022/05/24 17:39:59;;;;;;;7.93;2.90;;;27.70;44.20;;;;;;4817858;29;19934;-88
2022/05/24 17:42:26;;;;;;;10.10;3.53;;;28.10;45.60;;;;;;4814058;29;20082;-87
2022/05/24 17:48:18;;;;;;;10.38;2.63;;;28.90;46.40;;;;;;4832890;29;20029;-89
2022/05/24 17:50:50;;;;;;;8.13;2.20;;;27.40;46.00;;;;;;4822667;29;20090;-95
2022/05/24 17:58:53;;;;;;;8.27;2.70;;;27.00;46.50;;;;;;4916731;23;20172;-86
2022/05/24 18:01:22;;;;;;;6.95;2.20;;;25.80;45.90;;;;;;4843401;29;20025;-91
2022/05/24 18:04:03;;;;;;;7.28;3.13;;;;;;;;;;4839590;29;20029;-87
2022/05/24 18:12:24;;;;;;;8.85;3.17;;;26.40;46.20;;;;;;5759937;23;20069;-86
2022/05/24 18:21:47;;;;;;;10.25;3.85;;;26.30;46.50;;;;;;4822596;29;20118;-89
2022/05/24 18:24:44;;;;;;;10.63;4.07;;;26.10;47.20;;;;;;5044319;23;20048;-91
2022/05/24 18:33:59;;;;;;;7.68;3.15;;;26.30;47.40;;;;;;4855184;29;20118;-86
2022/05/24 18:39:17;;;;;;;7.05;2.92;;;25.90;47.20;;;;;;4863807;23;20068;-85
2022/05/24 18:42:11;;;;;;;7.00;2.40;;;27.40;48.40;;;;;;4805722;29;20096;-86
2022/05/24 18:44:48;;;;;;;9.20;3.45;;;25.80;47.30;;;;;;4897082;24;20090;-85
2022/05/24 18:57:35;;;;;;;6.80;2.85;;;25.60;47.10;;;;;;3923162;23;20283;-83
2022/05/24 19:00:03;;;;;;;7.75;2.50;;;25.60;47.20;;;;;;4843791;29;20040;-83
2022/05/24 19:02:37;;;;;;;5.70;2.30;;;22.20;45.60;;;;;;4867832;29;20045;-86
2022/05/24 19:05:03;;;;;;;11.25;3.47;;;25.50;47.00;;;;;;4889335;23;20065;-83
2022/05/24 19:07:29;;;;;;;11.70;3.38;;;25.50;47.50;;;;;;4873049;29;20034;-82
2022/05/24 19:09:55;;;;;;;10.85;3.40;;;25.40;47.90;;;;;;4854331;29;20041;-85
2022/05/24 19:12:26;;;;;;;8.70;2.50;;;25.40;48.10;;;;;;4857492;29;20026;-81
2022/05/24 19:15:01;;;;;;;7.45;3.20;;;23.80;47.10;;;;;;4874693;29;20034;-85
2022/05/24 19:17:52;;;;;;;13.15;3.15;;;25.30;47.40;;;;;;4853505;29;20014;-85
2022/05/24 19:20:38;;;;;;;7.00;2.00;;;25.10;47.50;;;;;;4857592;29;20034;-82
2022/05/24 19:23:05;;;;;;;7.68;2.53;;;25.20;47.40;;;;;;4877922;29;20056;-84
2022/05/24 19:25:33;;;;;;;8.82;3.20;;;25.10;47.50;;;;;;4867025;29;20109;-83
2022/05/24 19:27:59;;;;;;;10.25;4.40;;;25.00;47.80;;;;;;4854023;29;20044;-83
2022/05/24 19:30:26;;;;;;;6.95;2.88;;;24.90;47.80;;;;;;4869517;29;20018;-82
2022/05/24 19:35:41;;;;;;;13.27;2.53;;;24.90;46.40;;;;;;4986312;23;20049;-82
2022/05/24 19:38:08;;;;;;;5.80;2.22;;;24.90;46.20;;;;;;4930937;23;20062;-83
2022/05/24 19:43:53;;;;;;;9.07;3.75;;;24.90;46.80;;;;;;4869870;29;20037;-82
2022/05/24 19:46:21;;;;;;;10.40;4.50;;;24.70;47.70;;;;;;4848584;29;20102;-86
2022/05/24 19:48:47;;;;;;;6.70;2.50;;;24.60;46.50;;;;;;4873269;29;20037;-83
2022/05/24 19:51:16;;;;;;;9.82;2.65;;;24.70;47.10;;;;;;4875073;29;20060;-82
2022/05/24 19:53:52;;;;;;;10.70;3.13;;;25.00;46.60;;;;;;4856394;29;20073;-81
2022/05/24 19:56:29;;;;;;;10.77;3.33;;;24.70;46.20;;;;;;4851577;29;20041;-83
2022/05/24 19:59:13;;;;;;;8.48;2.92;;;25.30;48.70;;;;;;4867641;29;20045;-79
2022/05/24 20:01:49;;;;;;;4.68;2.13;;;24.70;49.80;;;;;;4862659;29;20061;-79
2022/05/24 20:04:35;;;;;;;10.07;2.60;;;24.50;52.60;;;;;;4848736;29;20017;-82
2022/05/24 20:07:02;;;;;;;8.27;2.00;;;;;;;;;;4867968;29;20057;-81
2022/05/24 20:09:28;;;;;;;9.77;2.00;;;23.60;51.10;;;;;;4867815;29;20064;-83
2022/05/24 20:12:01;;;;;;;8.63;2.50;;;;;;;;;;4854319;29;20608;-83
2022/05/24 20:14:52;;;;;;;10.63;2.50;;;23.20;52.70;;;;;;4856359;29;20068;-88
2022/05/24 20:17:33;;;;;;;9.43;2.75;;;22.90;54.10;;;;;;4861477;29;20068;-82
2022/05/24 20:20:29;;;;;;;5.15;2.25;;;22.70;56.00;;;;;;4880812;23;20125;-81
2022/05/24 20:23:11;;;;;;;9.15;2.85;;;22.60;55.70;;;;;;4874221;29;20232;-82
2022/05/24 20:25:46;;;;;;;6.78;2.60;;;22.70;54.70;;;;;;4872483;29;20046;-82
2022/05/24 20:28:25;;;;;;;4.68;2.25;;;22.60;59.40;;;;;;4875591;29;20029;-82
2022/05/24 20:30:56;;;;;;;5.35;2.22;;;23.10;56.80;;;;;;4869349;23;20230;-93
2022/05/24 20:33:23;;;;;;;11.23;3.08;;;22.30;61.90;;;;;;4840482;29;20022;-96
2022/05/24 20:36:02;;;;;;;;;;;;;;;;;;;;;
2022/05/24 20:38:30;;;;;;;6.88;2.42;;;22.20;56.10;;;;;;4822500;29;20138;-88
2022/05/24 20:40:57;;;;;;;6.15;2.15;;;22.10;57.40;;;;;;4832628;29;20035;-82
2022/05/24 20:43:27;;;;;;;7.55;2.25;;;22.10;56.50;;;;;;4829616;29;20038;-82
2022/05/24 20:45:53;;;;;;;6.40;2.05;;;22.00;57.00;;;;;;4836075;29;20542;-87
2022/05/24 20:48:19;;;;;;;7.05;2.58;;;;;;;;;;4834243;29;20049;-87
2022/05/24 20:50:45;;;;;;;9.13;2.65;;;22.10;62.40;;;;;;4818649;29;20034;-88
2022/05/24 20:53:10;;;;;;;5.07;2.30;;;22.20;63.80;;;;;;4819353;29;20082;-90
2022/05/24 20:55:36;;;;;;;6.88;2.40;;;22.20;64.20;;;;;;4817265;29;20129;-87
2022/05/24 20:58:02;;;;;;;6.38;2.78;;;;;;;;;;4823424;29;20476;-82
2022/05/24 21:00:37;;;;;;;7.55;2.35;;;;;;;;;;4823919;29;20034;-83
2022/05/24 21:03:12;;;;;;;5.90;2.53;;;;;;;;;;4813892;29;20038;-83
2022/05/24 21:05:37;;;;;;;6.82;2.80;;;22.10;64.30;;;;;;4796467;29;20121;-84
2022/05/24 21:55:05;;;;;;;4.93;1.90;;;20.70;65.50;;;;;;4966338;23;20285;-87
2022/05/24 21:57:37;;;;;;;12.73;2.58;;;20.90;68.80;;;;;;4832080;29;20025;-88
2022/05/24 22:00:49;;;;;;;7.00;2.83;;;20.70;62.80;;;;;;4814264;29;20443;-94
2022/05/24 22:05:46;;;;;;;7.70;2.75;;;20.90;63.10;;;;;;4853515;29;20509;-90
2022/05/24 22:08:13;;;;;;;14.27;7.43;;;21.10;63.80;;;;;;4840207;29;20029;-84
2022/05/24 22:11:05;;;;;;;10.52;4.00;;;20.50;62.90;;;;;;4854822;29;20238;-85
2022/05/24 22:16:14;;;;;;;8.00;2.78;;;20.80;60.60;;;;;;4861549;23;20069;-88
2022/05/24 22:18:39;;;;;;;7.60;2.30;;;20.90;61.50;;;;;;4855357;29;20075;-83
2022/05/24 22:21:06;;;;;;;8.88;3.17;;;;;;;;;;4849110;29;20065;-82
2022/05/24 22:23:39;;;;;;;8.05;2.58;;;21.00;58.90;;;;;;4835767;29;20037;-89
2022/05/24 22:26:07;;;;;;;10.23;2.70;;;20.70;62.00;;;;;;4850299;29;20029;-86
2022/05/24 22:28:33;;;;;;;8.40;2.28;;;20.60;61.80;;;;;;4831879;29;20038;-84
2022/05/24 22:30:59;;;;;;;5.57;1.98;;;20.70;62.40;;;;;;4849205;29;20120;-87
2022/05/24 22:33:25;;;;;;;6.88;2.10;;;20.60;64.30;;;;;;4849028;29;20026;-90
2022/05/24 22:36:00;;;;;;;8.23;3.20;;;20.60;63.90;;;;;;4848166;29;20033;-85
2022/05/24 22:38:31;;;;;;;8.30;3.40;;;20.50;63.30;;;;;;4847738;29;20053;-91
2022/05/24 22:41:14;;;;;;;8.77;2.38;;;19.00;62.80;;;;;;4847671;29;20034;-93
2022/05/24 22:43:40;;;;;;;7.75;2.63;;;20.50;63.10;;;;;;4847922;29;20025;-88
2022/05/24 22:46:13;;;;;;;7.65;2.70;;;20.40;64.90;;;;;;4847763;29;20331;-85
2022/05/24 22:48:39;;;;;;;13.80;3.70;;;21.20;63.40;;;;;;4847543;29;20065;-86
2022/05/24 22:51:28;;;;;;;6.63;2.60;;;20.50;64.20;;;;;;4830950;29;20429;-88
2022/05/24 22:53:55;;;;;;;6.60;2.85;;;20.80;59.80;;;;;;4847843;29;20026;-87
2022/05/24 22:56:24;;;;;;;7.28;2.22;;;20.70;60.30;;;;;;4847065;29;20037;-94
2022/05/24 22:58:52;;;;;;;6.95;2.08;;;20.80;60.80;;;;;;4847143;29;20490;-83
2022/05/24 23:01:23;;;;;;;13.70;4.22;;;21.00;61.10;;;;;;4846988;29;20033;-94
2022/05/24 23:03:49;;;;;;;10.23;4.10;;;21.10;61.10;;;;;;4847135;29;20382;-87
2022/05/24 23:06:19;;;;;;;10.50;2.60;;;21.20;60.90;;;;;;4847984;29;20025;-94
2022/05/24 23:08:45;;;;;;;10.18;2.92;;;21.40;60.40;;;;;;4847153;29;20121;-89
2022/05/24 23:11:11;;;;;;;8.23;2.30;;;21.50;60.40;;;;;;4847760;29;20212;-90
2022/05/24 23:13:37;;;;;;;6.18;2.92;;;21.40;61.00;;;;;;4844204;29;20305;-91
2022/05/24 23:16:09;;;;;;;8.30;2.70;;;21.60;60.50;;;;;;4844179;29;20288;-96
2022/05/24 23:18:34;;;;;;;6.05;2.13;;;21.60;60.80;;;;;;4844322;29;20098;-93
2022/05/24 23:21:02;;;;;;;7.40;2.63;;;21.80;60.80;;;;;;4844091;29;20033;-81
2022/05/24 23:23:28;;;;;;;5.22;2.00;;;21.80;60.50;;;;;;4844344;29;20129;-87
2022/05/24 23:25:56;;;;;;;7.63;2.47;;;21.80;61.10;;;;;;4828820;29;20121;-92
2022/05/24 23:28:22;;;;;;;6.72;2.40;;;21.80;60.30;;;;;;4843999;29;20260;-92
2022/05/24 23:30:54;;;;;;;8.25;2.90;;;21.80;60.80;;;;;;4844178;29;20037;-81
2022/05/24 23:33:20;;;;;;;7.20;2.35;;;21.70;61.10;;;;;;4843950;29;20055;-88
2022/05/24 23:35:46;;;;;;;10.77;2.65;;;21.60;61.40;;;;;;4844583;29;20041;-82
2022/05/24 23:38:12;;;;;;;6.30;2.33;;;;;;;;;;4844873;29;20249;-84
2022/05/24 23:40:38;;;;;;;7.18;1.95;;;21.60;61.50;;;;;;4843782;29;20335;-87
2022/05/24 23:43:05;;;;;;;7.68;2.97;;;21.70;62.00;;;;;;4845724;29;20608;-83
2022/05/24 23:45:31;;;;;;;7.88;3.13;;;21.50;62.50;;;;;;4849643;29;20033;-85
2022/05/24 23:47:56;;;;;;;7.70;2.50;;;21.50;63.10;;;;;;4850366;29;20052;-91
2022/05/24 23:50:22;;;;;;;8.02;2.42;;;21.50;63.40;;;;;;4833388;29;20061;-85
2022/05/24 23:52:50;;;;;;;8.52;2.15;;;21.50;64.10;;;;;;4858642;29;20082;-87
2022/05/24 23:55:16;;;;;;;8.40;2.40;;;21.60;63.60;;;;;;4833777;29;20128;-85
2022/05/24 23:57:42;;;;;;;6.13;2.40;;;21.60;62.50;;;;;;4850774;29;20128;-86
